createdAt,value
2022-08-12T01:17:42.665Z,1017.54
2022-08-12T01:46:31.279Z,1017.47
2022-08-12T02:15:21.746Z,1017.41
2022-08-12T02:44:13.191Z,1017.36
2022-08-12T03:13:04.363Z,1017.42
2022-08-12T03:41:53.695Z,1017.4
2022-08-12T04:10:43.385Z,1017.41
2022-08-12T04:39:33.102Z,1017.61
2022-08-12T05:08:13.646Z,1017.91
2022-08-12T05:36:59.313Z,1017.96
2022-08-12T06:05:29.876Z,1018.35
2022-08-12T06:35:24.600Z,1018.17
2022-08-12T07:03:22.963Z,1018.03
2022-08-12T07:31:31.551Z,1017.92
2022-08-12T08:00:08.296Z,1017.89
2022-08-12T08:28:48.998Z,1017.82
2022-08-12T08:57:44.895Z,1017.65
2022-08-12T09:25:55.976Z,1017.31
2022-08-12T09:54:43.353Z,1016.93
2022-08-12T10:22:59.176Z,1016.78
2022-08-12T10:52:03.229Z,1016.57
2022-08-12T11:20:04.572Z,1016.26
2022-08-12T11:48:52.838Z,1016.02
2022-08-12T12:17:10.211Z,1015.7
2022-08-12T12:45:26.977Z,1015.39
2022-08-12T13:14:28.500Z,1015.38
2022-08-12T13:42:27.004Z,1015.15
2022-08-12T14:11:13.179Z,1014.98
2022-08-12T14:39:33.053Z,1014.73
2022-08-12T15:08:09.747Z,1014.63
2022-08-12T15:36:53.653Z,1014.65
2022-08-12T16:04:57.089Z,1014.55
2022-08-12T16:33:56.541Z,1014.57
2022-08-12T17:01:55.853Z,1014.59
2022-08-12T17:30:27.273Z,1014.66
2022-08-12T17:58:59.633Z,1014.71
2022-08-12T18:27:47.772Z,1014.94
2022-08-12T18:56:03.580Z,1015.23
2022-08-12T19:24:32.207Z,1015.53
2022-08-12T19:53:10.005Z,1015.49
2022-08-12T20:21:55.596Z,1015.6
2022-08-12T20:50:30.267Z,1015.79
2022-08-12T21:18:51.402Z,1015.78
2022-08-12T21:47:28.925Z,1015.79
2022-08-12T22:15:55.365Z,1015.9
2022-08-12T22:44:14.658Z,1015.98
2022-08-12T23:13:06.149Z,1015.86
2022-08-12T23:42:17.254Z,1015.79
